Flight Track Log - Related Links

Times and Time Zones

All times are in EDT time to prevent confusion due to time zone crossing. See the LXJ545 flight status page for this flight to view local times or setup timezone preferences in your user account.

Time Position Orientation Groundspeed Altitude Reporting Facility
EDT Latitude Longitude Course Direction KTS MPH feet Rate Location/Type
Thu 02:15:36 PM 47.3853 -122.0792 116° Southeast 184 212 3,000  Level Seattle Center
Thu 02:16:12 PM 47.3744 -122.0458 116° Southeast 178 205 3,000 65 Level Seattle Center
Thu 02:17:08 PM 47.3242 -122.0411 176° South 198 228 3,100 918 Climbing Seattle Center
Thu 02:17:50 PM 47.2825 -122.0514 189° South 200 230 4,500 3,262 Climbing Seattle Center
Thu 02:18:51 PM 47.2228 -122.0669 190° South 215 247 8,700 3,854 Climbing Seattle Center
Thu 02:19:53 PM 47.1697 -122.0756 186° South 193 222 12,400 2,780 Climbing Seattle Center
Thu 02:20:54 PM 47.1036 -122.0867 187° South 253 291 14,400 2,016 Climbing Seattle Center
Thu 02:21:55 PM 47.0094 -122.1033 187° South 321 369 16,500 2,341 Climbing Seattle Center
Thu 02:22:57 PM 46.9122 -122.1036 180° South 360 414 19,200 2,732 Climbing Seattle Center
Thu 02:23:58 PM 46.8136 -122.0667 166° South 366 421 22,100 2,656 Climbing Seattle Center
Thu 02:24:59 PM 46.7364 -121.9522 135° Southeast 415 478 24,600 2,341 Climbing Seattle Center
Thu 02:26:01 PM 46.6747 -121.8114 123° Southeast 417 480 26,900 2,098 Climbing Seattle Center
Thu 02:27:02 PM 46.6125 -121.6642 122° Southeast 427 491 28,900 1,475 Climbing Seattle Center
Thu 02:28:03 PM 46.5428 -121.5008 122° Southeast 444 511 29,900 976 Climbing Seattle Center
Thu 02:29:05 PM 46.4717 -121.3353 122° Southeast 472 543 30,900 1,024 Climbing Seattle Center
Thu 02:30:06 PM 46.3989 -121.1675 122° Southeast 487 560 32,000 1,180 Climbing Seattle Center
Thu 02:31:07 PM 46.3239 -120.9956 122° Southeast 502 578 33,300 1,610 Climbing Seattle Center
Thu 02:32:09 PM 46.2356 -120.7956 123° Southeast 494 568 35,300 1,707 Climbing Seattle Center
Thu 02:33:10 PM 46.1622 -120.6303 123° Southeast 491 565 36,800 1,463 Climbing Seattle Center
Thu 02:34:12 PM 46.0894 -120.4669 123° Southeast 486 559 38,300 1,317 Climbing Seattle Center
Thu 02:35:13 PM 46.0172 -120.3069 123° Southeast 479 551 39,500 1,082 Climbing Seattle Center
Thu 02:36:14 PM 45.9461 -120.1483 123° Southeast 475 547 40,500 738 Climbing Seattle Center
Thu 02:37:15 PM 45.8761 -119.9936 123° Southeast 465 535 41,000 244 Climbing Seattle Center
Thu 02:38:17 PM 45.8044 -119.8381 123° Southeast 465 535 41,000  Level Seattle Center
Thu 02:39:18 PM 45.7331 -119.6828 123° Southeast 466 536 41,000  Level Seattle Center
Thu 02:40:20 PM 45.6622 -119.5292 123° Southeast 463 533 41,000  Level Seattle Center
Thu 02:41:21 PM 45.5919 -119.3778 124° Southeast 459 528 41,000  Level Seattle Center
Thu 02:42:22 PM 45.5067 -119.1958 124° Southeast 458 527 41,000  Level Seattle Center
Thu 02:43:24 PM 45.4353 -119.0447 124° Southeast 458 527 41,000  Level Seattle Center
Thu 02:44:25 PM 45.3647 -118.8950 124° Southeast 456 525 41,000  Level Seattle Center
Thu 02:45:26 PM 45.2931 -118.7458 124° Southeast 456 525 41,000  Level Seattle Center
Thu 02:46:28 PM 45.2225 -118.5956 124° Southeast 458 527 41,000  Level Seattle Center
Thu 02:47:29 PM 45.1581 -118.4358 120° Southeast 465 535 41,000  Level Seattle Center
Thu 02:48:30 PM 45.0922 -118.2742 120° Southeast 472 543 41,000  Level Seattle Center
Thu 02:49:32 PM 45.0236 -118.1047 120° Southeast 473 544 41,000  Level Seattle Center
Thu 02:50:33 PM 44.9494 -117.9275 121° Southeast 471 542 41,000  Level Seattle Center
Thu 02:51:34 PM 44.8842 -117.7717 121° Southeast 478 550 41,000  Level Seattle Center
Thu 02:52:36 PM 44.8183 -117.6125 120° Southeast 488 562 41,000  Level Seattle Center
Thu 02:53:37 PM 44.7411 -117.4272 120° Southeast 491 565 41,000  Level Seattle Center
Thu 02:54:38 PM 44.6744 -117.2719 121° Southeast 487 560 41,000  Level Seattle Center
Thu 02:55:40 PM 44.5994 -117.0947 121° Southeast 475 547 41,000  Level Seattle Center
Thu 02:56:41 PM 44.5361 -116.9450 121° Southeast 469 540 41,000  Level Seattle Center
Thu 02:57:42 PM 44.4728 -116.7981 121° Southeast 464 534 41,000  Level Seattle Center
Thu 02:58:43 PM 44.3994 -116.6281 121° Southeast 459 528 41,000  Level Seattle Center
Thu 02:59:57 PM 44.3147 -116.4344 121° Southeast 462 532 41,000  Level Salt Lake Center
Thu 03:01:00 PM 44.2522 -116.2897 121° Southeast 462 532 41,000  Level Salt Lake Center
Thu 03:02:02 PM 44.1794 -116.1206 121° Southeast 460 529 41,000  Level Salt Lake Center
Thu 03:03:04 PM 44.1161 -115.9744 121° Southeast 465 535 41,000 -97 Level Salt Lake Center
Thu 03:04:06 PM 44.0381 -115.7994 122° Southeast 478 550 40,800 -1,790 Descending Salt Lake Center
Thu 03:05:08 PM 43.9725 -115.6500 121° Southeast 474 545 37,300 -4,161 Descending Salt Lake Center
Thu 03:06:10 PM 43.8964 -115.4814 122° Southeast 465 535 32,200 -3,968 Descending Salt Lake Center
Thu 03:07:12 PM 43.8283 -115.3308 122° Southeast 480 552 29,100 -2,613 Descending Salt Lake Center
Thu 03:08:14 PM 43.7497 -115.1561 122° Southeast 478 550 26,800 -2,613 Descending Salt Lake Center
Thu 03:09:16 PM 43.6856 -115.0131 122° Southeast 460 529 23,700 -3,339 Descending Salt Lake Center
Thu 03:10:18 PM 43.6139 -114.8589 123° Southeast 452 520 19,900 -3,484 Descending Salt Lake Center
Thu 03:11:20 PM 43.5469 -114.7111 122° Southeast 434 499 16,500 -3,290 Descending Salt Lake Center
Thu 03:12:22 PM 43.4864 -114.5747 121° Southeast 394 453 13,100 -1,839 Descending Salt Lake Center
Thu 03:13:24 PM 43.4406 -114.4722 122° Southeast 357 411 12,700 -435 Descending Salt Lake Center
Thu 03:14:26 PM 43.3919 -114.3631 121° Southeast 342 394 12,200 -484 Descending Salt Lake Center

Login

Don't have an account? Register now (free) for customized features, flight alerts, and more!